Worden, Illinois
Current Conditions -  °F | °C
As of 10:55 PM on Monday 22 Dec 2014 (Local Time) from KALN Reporting Station
Overcast Overcast  
Wind Chill: 46°   Ceiling: 1100
Heat Index: 49°   Visibility: 10mi
Dew Point: 49°   Wind: 8mph
Humidity: 97%   Direction: 180°S
Pressure: 29.54"   Gusts: NA
Location:  38.93°N, 89.84°W
Report Text: KALN 230455Z AUTO 18007KT 10SM BKN011 OVC014 10/09 A2954 RMK AO2 T00970093
Loading
Personal Weather Stations






























Interactive Weather Map New forecast layout! Learn more

10-Day Weather Forecast

Advertisements
Track Severe Weather on mobile